Capitol Logistics 935

Operating for DHL



EPWA
Warsaw Chopin Airport
Warsaw, PL
EDDK
Cologne Bonn Airport
Cologne, DE

Activity Log

Date Flight Route Aircraft Duration
02/09/2022 CPX935 LOLS5K LOLSI T174 INDIG L980 SUBIX Z20 MAG L986 POVEL Q201 PODER Z189 RUNER T858 KOPAG KOPA14 A30F 1h 55m

Route Details

Aircraft Information
Group: European Fleet
Types: A30F,A31F,B738
Route Data
Demand: V
Distance: 522nm
Duration: 1h 50m
Recm'd Route: LOLS7G LOLSI T174 INDIG L980 SUBIX Z20 MAG L986 POVEL Q201 PODER Z189 RUNER T858 KOPAG KOPA24
Origin Wx: EPWA 272230Z 26010KT CAVOK 09/04 Q1010 NOSIG
Dest. Wx: EDDK 272220Z AUTO 31005KT 280V340 CAVOK 10/04 Q1023 NOSIG
Notes:

Financial History
Total Freight: 58,154lbs
Average Load: 58,154lbs/flt
Fuel Used: 20,483lbs
Avg. Fuel Used: 20,483lbs/flt
Fuel Expense: $15,895
Avg. Fuel Expense: $15,895
Avg. Fuel Cost: $0.78/lbs
Total Gross Income: $213,541
Pilot Pay: $259
Total Expenses: $27,868
Total Revenue: $169,377
Average Revenue: $213,541.48